テヘラン の空港の天気 - METARとTAF

メヘラーバード国際空港(テヘラン) ( OIII / THR ) - イラン テヘラン
飛行場実況気象(Metar)
観測時間04/25 20:30 +0430 (04/25 16:00 UTC)
風向・風速北北西 6m/s
視程8000m
天気現象弱い雷雨
全天の4割程度の雲 雲底高度 910m
全天の4割程度の雲 雲底高度 1070m
全天の8割程度の雲 雲底高度 2740m
気温19℃
湿度52%
気圧1016hPa
METAROIII 251600Z 33012KT 8000 -TSRA SCT030CB SCT035 BKN090 19/09 Q1016 A3002 TEMPO 30010G20KT 6000 TSRA
過去の天気等 Google飛行場航空写真 Wunderground天気予報

過去48時間のMETAR

飛行場予報(TAF)
発表時間: 4/25 15:30 +0430 (4/25 11:00 UTC)
予報対象時間: 25日16時 +0430 ~ 26日22時 +0430
風向・風速北北西 7m/s
視程7,000m
天気現象しゅう雨
少しの積乱雲 雲底高度 910m
全天の4割程度の雲 雲底高度 1,070m
全天の8割程度の雲 雲底高度 3,050m
25日16時 +0430 ~ 25日20時 +0430 に一時的に
風向・風速西 10m/s 瞬間風速 15m/s
視程3,000m
26日0時 +0430 ~ 26日2時 +0430 に徐々に
風向・風速北北西 5m/s
少しの雲 雲底高度 910m
全天の4割程度の雲 雲底高度 3,050m
TAF OIII 251100Z 2512/2618 33007MPS 7000 SHRA FEW030CB SCT035 BKN100
TEMPO 2512/2516 27010G15MPS 3000 TSGR/SA SCT035CB SCT040 OVC100
BECMG 2520/2522 33005MPS FEW030 SCT100